Terminal Aerodrome Forecast
Issued by NWS

Home | Current Version | Previous Version | Text Only | Print | Product List | Glossary On
Versions: 1 2 3 4 5 6 7 8 9 10 11 12 13 14 15 16 17 18 19 20 21 22 23 24 25 26 27 28 29 30
000
FTUS41 KBOX 210841 AAA
TAFBAF
TAF AMD
KBAF 210841Z 2109/2206 00000KT 5SM SHRA BR OVC005
     FM211200 17005KT 3SM -SHRA BR OVC008
     FM211400 17005KT P6SM BKN015
     FM211500 17005KT P6SM BKN030
     FM211800 18006KT P6SM BKN100
     FM220300 23004KT 5SM BR BKN090=

USA.gov is the U.S. government's official web portal to all federal, state and local government web resources and services.